sensor_id;sensor_type;location;lat;lon;timestamp;P1;durP1;ratioP1;P2;durP2;ratioP2
19842;SDS011;10082;51.038;6.992;2024-01-27T00:01:35;9.57;;;3.23;;
19842;SDS011;10082;51.038;6.992;2024-01-27T00:04:02;10.33;;;3.33;;
19842;SDS011;10082;51.038;6.992;2024-01-27T00:06:32;12.33;;;4.00;;
19842;SDS011;10082;51.038;6.992;2024-01-27T00:09:00;8.30;;;3.40;;
19842;SDS011;10082;51.038;6.992;2024-01-27T00:11:27;7.77;;;3.23;;
19842;SDS011;10082;51.038;6.992;2024-01-27T00:13:54;11.13;;;3.27;;
19842;SDS011;10082;51.038;6.992;2024-01-27T00:16:21;10.23;;;3.83;;
19842;SDS011;10082;51.038;6.992;2024-01-27T00:18:49;7.60;;;3.30;;
19842;SDS011;10082;51.038;6.992;2024-01-27T00:21:17;11.20;;;3.80;;
19842;SDS011;10082;51.038;6.992;2024-01-27T00:23:46;6.73;;;2.70;;
19842;SDS011;10082;51.038;6.992;2024-01-27T00:26:13;8.60;;;3.00;;
19842;SDS011;10082;51.038;6.992;2024-01-27T00:28:40;9.83;;;2.90;;
19842;SDS011;10082;51.038;6.992;2024-01-27T00:31:08;11.53;;;3.30;;
19842;SDS011;10082;51.038;6.992;2024-01-27T00:33:35;8.43;;;2.93;;
19842;SDS011;10082;51.038;6.992;2024-01-27T00:36:02;9.77;;;3.23;;
19842;SDS011;10082;51.038;6.992;2024-01-27T00:38:30;11.10;;;3.70;;
19842;SDS011;10082;51.038;6.992;2024-01-27T00:40:59;12.60;;;3.40;;
19842;SDS011;10082;51.038;6.992;2024-01-27T00:43:26;9.33;;;3.63;;
19842;SDS011;10082;51.038;6.992;2024-01-27T00:45:53;6.27;;;2.77;;
19842;SDS011;10082;51.038;6.992;2024-01-27T00:48:21;8.50;;;3.40;;
19842;SDS011;10082;51.038;6.992;2024-01-27T00:50:48;8.73;;;3.30;;
19842;SDS011;10082;51.038;6.992;2024-01-27T00:53:16;11.53;;;3.20;;
19842;SDS011;10082;51.038;6.992;2024-01-27T00:55:43;7.97;;;3.03;;
19842;SDS011;10082;51.038;6.992;2024-01-27T00:58:15;7.93;;;3.13;;
19842;SDS011;10082;51.038;6.992;2024-01-27T01:00:43;7.90;;;3.10;;
19842;SDS011;10082;51.038;6.992;2024-01-27T01:03:10;12.23;;;3.90;;
19842;SDS011;10082;51.038;6.992;2024-01-27T01:05:37;9.03;;;4.10;;
19842;SDS011;10082;51.038;6.992;2024-01-27T01:08:05;10.47;;;3.10;;
19842;SDS011;10082;51.038;6.992;2024-01-27T01:10:33;6.60;;;3.13;;
19842;SDS011;10082;51.038;6.992;2024-01-27T01:13:00;9.93;;;3.33;;
19842;SDS011;10082;51.038;6.992;2024-01-27T01:15:29;12.17;;;3.17;;
19842;SDS011;10082;51.038;6.992;2024-01-27T01:17:56;9.77;;;3.63;;
19842;SDS011;10082;51.038;6.992;2024-01-27T01:20:23;9.80;;;3.57;;
19842;SDS011;10082;51.038;6.992;2024-01-27T01:22:52;12.40;;;4.40;;
19842;SDS011;10082;51.038;6.992;2024-01-27T01:25:19;10.83;;;4.20;;
19842;SDS011;10082;51.038;6.992;2024-01-27T01:27:46;11.23;;;4.13;;
19842;SDS011;10082;51.038;6.992;2024-01-27T01:30:15;9.27;;;4.30;;
19842;SDS011;10082;51.038;6.992;2024-01-27T01:32:44;9.63;;;3.97;;
19842;SDS011;10082;51.038;6.992;2024-01-27T01:35:11;12.27;;;5.20;;
19842;SDS011;10082;51.038;6.992;2024-01-27T01:37:38;11.80;;;4.20;;
19842;SDS011;10082;51.038;6.992;2024-01-27T01:40:06;10.87;;;4.67;;
19842;SDS011;10082;51.038;6.992;2024-01-27T01:42:34;11.50;;;4.20;;
19842;SDS011;10082;51.038;6.992;2024-01-27T01:45:02;8.53;;;4.30;;
19842;SDS011;10082;51.038;6.992;2024-01-27T01:47:29;8.77;;;4.10;;
19842;SDS011;10082;51.038;6.992;2024-01-27T01:49:58;9.53;;;4.40;;
19842;SDS011;10082;51.038;6.992;2024-01-27T01:52:25;9.83;;;4.47;;
19842;SDS011;10082;51.038;6.992;2024-01-27T01:54:56;10.23;;;4.30;;
19842;SDS011;10082;51.038;6.992;2024-01-27T01:57:23;8.60;;;4.23;;
19842;SDS011;10082;51.038;6.992;2024-01-27T01:59:50;11.73;;;4.43;;
19842;SDS011;10082;51.038;6.992;2024-01-27T02:02:18;12.07;;;4.77;;
19842;SDS011;10082;51.038;6.992;2024-01-27T02:04:46;9.03;;;4.10;;
19842;SDS011;10082;51.038;6.992;2024-01-27T02:07:14;9.97;;;4.13;;
19842;SDS011;10082;51.038;6.992;2024-01-27T02:09:41;12.70;;;4.40;;
19842;SDS011;10082;51.038;6.992;2024-01-27T02:12:09;10.33;;;4.50;;
19842;SDS011;10082;51.038;6.992;2024-01-27T02:14:36;11.00;;;5.03;;
19842;SDS011;10082;51.038;6.992;2024-01-27T02:17:05;9.37;;;4.40;;
19842;SDS011;10082;51.038;6.992;2024-01-27T02:19:33;10.17;;;4.60;;
19842;SDS011;10082;51.038;6.992;2024-01-27T02:22:01;10.10;;;4.60;;
19842;SDS011;10082;51.038;6.992;2024-01-27T02:24:29;8.53;;;4.60;;
19842;SDS011;10082;51.038;6.992;2024-01-27T02:26:57;9.63;;;4.03;;
19842;SDS011;10082;51.038;6.992;2024-01-27T02:29:24;9.37;;;4.80;;
19842;SDS011;10082;51.038;6.992;2024-01-27T02:31:52;10.23;;;4.77;;
19842;SDS011;10082;51.038;6.992;2024-01-27T02:34:20;11.43;;;5.40;;
19842;SDS011;10082;51.038;6.992;2024-01-27T02:36:47;9.07;;;4.37;;
19842;SDS011;10082;51.038;6.992;2024-01-27T02:39:14;9.00;;;3.90;;
19842;SDS011;10082;51.038;6.992;2024-01-27T02:41:43;11.53;;;4.63;;
19842;SDS011;10082;51.038;6.992;2024-01-27T02:44:11;12.23;;;5.20;;
19842;SDS011;10082;51.038;6.992;2024-01-27T02:46:38;12.07;;;4.93;;
19842;SDS011;10082;51.038;6.992;2024-01-27T02:49:07;9.80;;;5.17;;
19842;SDS011;10082;51.038;6.992;2024-01-27T02:51:35;10.00;;;4.30;;
19842;SDS011;10082;51.038;6.992;2024-01-27T02:54:03;9.63;;;5.10;;
19842;SDS011;10082;51.038;6.992;2024-01-27T02:56:30;8.77;;;4.73;;
19842;SDS011;10082;51.038;6.992;2024-01-27T02:58:59;9.47;;;4.30;;
19842;SDS011;10082;51.038;6.992;2024-01-27T03:01:29;6.53;;;4.23;;
19842;SDS011;10082;51.038;6.992;2024-01-27T03:03:57;13.87;;;4.90;;
19842;SDS011;10082;51.038;6.992;2024-01-27T03:06:24;9.50;;;4.53;;
19842;SDS011;10082;51.038;6.992;2024-01-27T03:08:52;10.17;;;4.60;;
19842;SDS011;10082;51.038;6.992;2024-01-27T03:11:20;9.33;;;4.50;;
19842;SDS011;10082;51.038;6.992;2024-01-27T03:13:47;10.17;;;4.80;;
19842;SDS011;10082;51.038;6.992;2024-01-27T03:16:16;11.60;;;5.40;;
19842;SDS011;10082;51.038;6.992;2024-01-27T03:18:45;11.53;;;5.10;;
19842;SDS011;10082;51.038;6.992;2024-01-27T03:21:12;9.57;;;4.63;;
19842;SDS011;10082;51.038;6.992;2024-01-27T03:23:40;9.77;;;4.73;;
19842;SDS011;10082;51.038;6.992;2024-01-27T03:26:07;14.60;;;5.00;;
19842;SDS011;10082;51.038;6.992;2024-01-27T03:28:34;9.10;;;4.90;;
19842;SDS011;10082;51.038;6.992;2024-01-27T03:31:01;11.17;;;5.10;;
19842;SDS011;10082;51.038;6.992;2024-01-27T03:33:30;10.97;;;4.43;;
19842;SDS011;10082;51.038;6.992;2024-01-27T03:35:57;9.63;;;4.90;;
19842;SDS011;10082;51.038;6.992;2024-01-27T03:38:24;9.77;;;4.47;;
19842;SDS011;10082;51.038;6.992;2024-01-27T03:43:54;8.87;;;5.10;;
19842;SDS011;10082;51.038;6.992;2024-01-27T03:46:21;13.07;;;5.23;;
19842;SDS011;10082;51.038;6.992;2024-01-27T03:48:50;10.07;;;4.67;;
19842;SDS011;10082;51.038;6.992;2024-01-27T03:51:18;11.10;;;5.07;;
19842;SDS011;10082;51.038;6.992;2024-01-27T03:53:45;10.80;;;4.73;;
19842;SDS011;10082;51.038;6.992;2024-01-27T03:56:12;9.90;;;5.00;;
19842;SDS011;10082;51.038;6.992;2024-01-27T03:58:39;10.70;;;4.77;;
19842;SDS011;10082;51.038;6.992;2024-01-27T04:01:07;11.97;;;5.37;;
19842;SDS011;10082;51.038;6.992;2024-01-27T04:03:34;9.93;;;4.97;;
19842;SDS011;10082;51.038;6.992;2024-01-27T04:06:03;11.53;;;5.60;;
19842;SDS011;10082;51.038;6.992;2024-01-27T04:08:31;12.27;;;5.10;;
19842;SDS011;10082;51.038;6.992;2024-01-27T04:10:58;11.37;;;5.67;;
19842;SDS011;10082;51.038;6.992;2024-01-27T04:13:26;9.67;;;5.23;;
19842;SDS011;10082;51.038;6.992;2024-01-27T04:15:53;11.53;;;6.00;;
19842;SDS011;10082;51.038;6.992;2024-01-27T04:18:20;13.93;;;5.37;;
19842;SDS011;10082;51.038;6.992;2024-01-27T04:20:47;9.90;;;4.87;;
19842;SDS011;10082;51.038;6.992;2024-01-27T04:23:17;13.77;;;5.60;;
19842;SDS011;10082;51.038;6.992;2024-01-27T04:25:44;9.53;;;4.83;;
19842;SDS011;10082;51.038;6.992;2024-01-27T04:28:11;12.10;;;5.23;;
19842;SDS011;10082;51.038;6.992;2024-01-27T04:30:38;9.30;;;5.10;;
19842;SDS011;10082;51.038;6.992;2024-01-27T04:33:06;11.90;;;5.73;;
19842;SDS011;10082;51.038;6.992;2024-01-27T04:35:33;10.23;;;5.17;;
19842;SDS011;10082;51.038;6.992;2024-01-27T04:38:00;8.90;;;4.80;;
19842;SDS011;10082;51.038;6.992;2024-01-27T04:40:31;12.20;;;5.60;;
19842;SDS011;10082;51.038;6.992;2024-01-27T04:42:58;13.60;;;6.43;;
19842;SDS011;10082;51.038;6.992;2024-01-27T04:45:25;13.67;;;5.50;;
19842;SDS011;10082;51.038;6.992;2024-01-27T04:47:53;11.97;;;5.20;;
19842;SDS011;10082;51.038;6.992;2024-01-27T04:50:21;11.83;;;5.37;;
19842;SDS011;10082;51.038;6.992;2024-01-27T04:52:48;11.53;;;5.73;;
19842;SDS011;10082;51.038;6.992;2024-01-27T04:55:15;12.73;;;6.47;;
19842;SDS011;10082;51.038;6.992;2024-01-27T04:57:44;11.57;;;6.80;;
19842;SDS011;10082;51.038;6.992;2024-01-27T05:00:11;11.37;;;6.00;;
19842;SDS011;10082;51.038;6.992;2024-01-27T05:02:39;11.03;;;6.40;;
19842;SDS011;10082;51.038;6.992;2024-01-27T05:05:06;13.07;;;6.07;;
19842;SDS011;10082;51.038;6.992;2024-01-27T05:07:34;14.20;;;6.37;;
19842;SDS011;10082;51.038;6.992;2024-01-27T05:10:01;11.13;;;6.43;;
19842;SDS011;10082;51.038;6.992;2024-01-27T05:12:29;13.90;;;6.40;;
19842;SDS011;10082;51.038;6.992;2024-01-27T05:14:57;14.30;;;7.17;;
19842;SDS011;10082;51.038;6.992;2024-01-27T05:17:24;12.43;;;6.10;;
19842;SDS011;10082;51.038;6.992;2024-01-27T05:19:51;12.17;;;6.63;;
19842;SDS011;10082;51.038;6.992;2024-01-27T05:22:18;10.27;;;6.10;;
19842;SDS011;10082;51.038;6.992;2024-01-27T05:24:45;14.70;;;6.73;;
19842;SDS011;10082;51.038;6.992;2024-01-27T05:27:12;13.10;;;6.50;;
19842;SDS011;10082;51.038;6.992;2024-01-27T05:29:39;12.73;;;6.90;;
19842;SDS011;10082;51.038;6.992;2024-01-27T05:32:08;10.37;;;6.50;;
19842;SDS011;10082;51.038;6.992;2024-01-27T05:34:35;12.63;;;6.63;;
19842;SDS011;10082;51.038;6.992;2024-01-27T05:37:03;14.00;;;7.23;;
19842;SDS011;10082;51.038;6.992;2024-01-27T05:39:30;15.03;;;6.50;;
19842;SDS011;10082;51.038;6.992;2024-01-27T05:41:59;13.73;;;6.87;;
19842;SDS011;10082;51.038;6.992;2024-01-27T05:44:26;13.93;;;7.03;;
19842;SDS011;10082;51.038;6.992;2024-01-27T05:46:53;11.17;;;6.73;;
19842;SDS011;10082;51.038;6.992;2024-01-27T05:49:22;11.50;;;6.80;;
19842;SDS011;10082;51.038;6.992;2024-01-27T05:51:50;14.00;;;6.93;;
19842;SDS011;10082;51.038;6.992;2024-01-27T05:54:17;14.03;;;7.00;;
19842;SDS011;10082;51.038;6.992;2024-01-27T05:56:44;13.30;;;6.73;;
19842;SDS011;10082;51.038;6.992;2024-01-27T05:59:12;14.03;;;6.90;;
19842;SDS011;10082;51.038;6.992;2024-01-27T06:01:39;11.13;;;6.73;;
19842;SDS011;10082;51.038;6.992;2024-01-27T06:04:08;11.90;;;6.20;;
19842;SDS011;10082;51.038;6.992;2024-01-27T06:06:39;15.20;;;11.67;;
19842;SDS011;10082;51.038;6.992;2024-01-27T06:09:06;13.43;;;8.20;;
19842;SDS011;10082;51.038;6.992;2024-01-27T06:11:36;14.90;;;8.33;;
19842;SDS011;10082;51.038;6.992;2024-01-27T06:14:04;10.70;;;8.40;;
19842;SDS011;10082;51.038;6.992;2024-01-27T06:16:31;13.80;;;6.70;;
19842;SDS011;10082;51.038;6.992;2024-01-27T06:19:00;13.23;;;7.37;;
19842;SDS011;10082;51.038;6.992;2024-01-27T06:21:28;14.27;;;7.70;;
19842;SDS011;10082;51.038;6.992;2024-01-27T06:23:57;13.53;;;7.60;;
19842;SDS011;10082;51.038;6.992;2024-01-27T06:26:24;13.27;;;7.07;;
19842;SDS011;10082;51.038;6.992;2024-01-27T06:28:51;11.67;;;6.93;;
19842;SDS011;10082;51.038;6.992;2024-01-27T06:31:19;12.30;;;7.17;;
19842;SDS011;10082;51.038;6.992;2024-01-27T06:33:46;13.97;;;7.10;;
19842;SDS011;10082;51.038;6.992;2024-01-27T06:36:14;14.00;;;6.90;;
19842;SDS011;10082;51.038;6.992;2024-01-27T06:38:41;13.80;;;7.17;;
19842;SDS011;10082;51.038;6.992;2024-01-27T06:41:10;14.10;;;7.00;;
19842;SDS011;10082;51.038;6.992;2024-01-27T06:43:38;12.53;;;6.93;;
19842;SDS011;10082;51.038;6.992;2024-01-27T06:46:05;13.43;;;6.53;;
19842;SDS011;10082;51.038;6.992;2024-01-27T06:48:33;11.57;;;6.57;;
19842;SDS011;10082;51.038;6.992;2024-01-27T06:51:00;13.57;;;6.40;;
19842;SDS011;10082;51.038;6.992;2024-01-27T06:53:28;14.60;;;6.77;;
19842;SDS011;10082;51.038;6.992;2024-01-27T06:55:55;14.33;;;6.67;;
19842;SDS011;10082;51.038;6.992;2024-01-27T06:58:24;15.63;;;6.93;;
19842;SDS011;10082;51.038;6.992;2024-01-27T07:00:51;11.97;;;6.73;;
19842;SDS011;10082;51.038;6.992;2024-01-27T07:03:19;11.33;;;6.30;;
19842;SDS011;10082;51.038;6.992;2024-01-27T07:05:46;9.60;;;6.17;;
19842;SDS011;10082;51.038;6.992;2024-01-27T07:08:14;12.90;;;6.47;;
19842;SDS011;10082;51.038;6.992;2024-01-27T07:10:44;10.60;;;6.83;;
19842;SDS011;10082;51.038;6.992;2024-01-27T07:13:13;12.50;;;6.47;;
19842;SDS011;10082;51.038;6.992;2024-01-27T07:15:44;13.27;;;6.30;;
19842;SDS011;10082;51.038;6.992;2024-01-27T07:18:11;14.10;;;6.37;;
19842;SDS011;10082;51.038;6.992;2024-01-27T07:20:40;11.63;;;6.67;;
19842;SDS011;10082;51.038;6.992;2024-01-27T07:23:08;10.93;;;6.60;;
19842;SDS011;10082;51.038;6.992;2024-01-27T07:25:36;13.03;;;6.23;;
19842;SDS011;10082;51.038;6.992;2024-01-27T07:28:05;8.67;;;5.50;;
19842;SDS011;10082;51.038;6.992;2024-01-27T07:30:32;16.20;;;6.33;;
19842;SDS011;10082;51.038;6.992;2024-01-27T07:33:02;12.13;;;5.97;;
19842;SDS011;10082;51.038;6.992;2024-01-27T07:35:30;12.97;;;6.23;;
19842;SDS011;10082;51.038;6.992;2024-01-27T07:37:58;13.17;;;6.33;;
19842;SDS011;10082;51.038;6.992;2024-01-27T07:40:25;12.03;;;6.30;;
19842;SDS011;10082;51.038;6.992;2024-01-27T07:42:53;13.03;;;6.70;;
19842;SDS011;10082;51.038;6.992;2024-01-27T07:45:21;11.90;;;6.47;;
19842;SDS011;10082;51.038;6.992;2024-01-27T07:47:48;13.03;;;7.07;;
19842;SDS011;10082;51.038;6.992;2024-01-27T07:50:17;9.60;;;6.10;;
19842;SDS011;10082;51.038;6.992;2024-01-27T07:52:45;11.83;;;6.10;;
19842;SDS011;10082;51.038;6.992;2024-01-27T07:57:59;11.70;;;5.97;;
19842;SDS011;10082;51.038;6.992;2024-01-27T08:00:27;13.83;;;6.63;;
19842;SDS011;10082;51.038;6.992;2024-01-27T08:02:56;11.57;;;6.63;;
19842;SDS011;10082;51.038;6.992;2024-01-27T08:05:25;12.30;;;6.10;;
19842;SDS011;10082;51.038;6.992;2024-01-27T08:07:53;12.37;;;6.63;;
19842;SDS011;10082;51.038;6.992;2024-01-27T08:10:20;14.67;;;6.50;;
19842;SDS011;10082;51.038;6.992;2024-01-27T08:12:48;13.07;;;6.60;;
19842;SDS011;10082;51.038;6.992;2024-01-27T08:15:17;11.53;;;6.30;;
19842;SDS011;10082;51.038;6.992;2024-01-27T08:17:45;9.67;;;6.10;;
19842;SDS011;10082;51.038;6.992;2024-01-27T08:20:13;11.47;;;6.60;;
19842;SDS011;10082;51.038;6.992;2024-01-27T08:22:42;10.57;;;6.40;;
19842;SDS011;10082;51.038;6.992;2024-01-27T08:25:09;12.47;;;6.10;;
19842;SDS011;10082;51.038;6.992;2024-01-27T08:27:37;10.13;;;5.73;;
19842;SDS011;10082;51.038;6.992;2024-01-27T08:30:04;12.03;;;5.33;;
19842;SDS011;10082;51.038;6.992;2024-01-27T08:32:33;9.80;;;5.67;;
19842;SDS011;10082;51.038;6.992;2024-01-27T08:35:00;10.13;;;5.53;;
19842;SDS011;10082;51.038;6.992;2024-01-27T08:37:28;7.87;;;5.23;;
19842;SDS011;10082;51.038;6.992;2024-01-27T08:39:58;10.67;;;4.83;;
19842;SDS011;10082;51.038;6.992;2024-01-27T08:42:25;12.97;;;5.20;;
19842;SDS011;10082;51.038;6.992;2024-01-27T08:44:53;12.83;;;4.93;;
19842;SDS011;10082;51.038;6.992;2024-01-27T08:47:20;13.17;;;4.63;;
19842;SDS011;10082;51.038;6.992;2024-01-27T08:49:48;8.23;;;4.37;;
19842;SDS011;10082;51.038;6.992;2024-01-27T08:52:16;9.53;;;4.63;;
19842;SDS011;10082;51.038;6.992;2024-01-27T08:54:44;8.43;;;3.90;;
19842;SDS011;10082;51.038;6.992;2024-01-27T08:57:15;8.80;;;3.83;;
19842;SDS011;10082;51.038;6.992;2024-01-27T08:59:43;8.17;;;3.70;;
19842;SDS011;10082;51.038;6.992;2024-01-27T09:02:10;5.70;;;3.07;;
19842;SDS011;10082;51.038;6.992;2024-01-27T09:04:37;6.93;;;3.63;;
19842;SDS011;10082;51.038;6.992;2024-01-27T09:07:05;6.80;;;2.90;;
19842;SDS011;10082;51.038;6.992;2024-01-27T09:09:32;7.03;;;2.75;;
19842;SDS011;10082;51.038;6.992;2024-01-27T09:11:59;8.07;;;3.00;;
19842;SDS011;10082;51.038;6.992;2024-01-27T09:14:28;8.63;;;3.67;;
19842;SDS011;10082;51.038;6.992;2024-01-27T09:16:55;5.57;;;2.90;;
19842;SDS011;10082;51.038;6.992;2024-01-27T09:19:23;7.28;;;3.10;;
19842;SDS011;10082;51.038;6.992;2024-01-27T09:21:50;7.95;;;3.35;;
19842;SDS011;10082;51.038;6.992;2024-01-27T09:24:18;6.10;;;3.20;;
19842;SDS011;10082;51.038;6.992;2024-01-27T09:26:45;7.88;;;3.30;;
19842;SDS011;10082;51.038;6.992;2024-01-27T09:29:13;6.03;;;2.95;;
19842;SDS011;10082;51.038;6.992;2024-01-27T09:31:41;8.45;;;3.40;;
19842;SDS011;10082;51.038;6.992;2024-01-27T09:34:09;6.57;;;2.70;;
19842;SDS011;10082;51.038;6.992;2024-01-27T09:36:36;4.57;;;2.95;;
19842;SDS011;10082;51.038;6.992;2024-01-27T09:39:03;8.25;;;3.40;;
19842;SDS011;10082;51.038;6.992;2024-01-27T09:41:31;5.78;;;3.08;;
19842;SDS011;10082;51.038;6.992;2024-01-27T09:43:59;7.03;;;3.25;;
19842;SDS011;10082;51.038;6.992;2024-01-27T09:46:28;8.05;;;3.00;;
19842;SDS011;10082;51.038;6.992;2024-01-27T09:48:58;9.20;;;3.47;;
19842;SDS011;10082;51.038;6.992;2024-01-27T09:51:26;8.02;;;3.22;;
19842;SDS011;10082;51.038;6.992;2024-01-27T09:53:54;5.95;;;2.97;;
19842;SDS011;10082;51.038;6.992;2024-01-27T09:56:22;4.85;;;2.95;;
19842;SDS011;10082;51.038;6.992;2024-01-27T09:58:50;7.13;;;3.20;;
19842;SDS011;10082;51.038;6.992;2024-01-27T10:01:20;9.75;;;3.50;;
19842;SDS011;10082;51.038;6.992;2024-01-27T10:03:50;6.75;;;3.33;;
19842;SDS011;10082;51.038;6.992;2024-01-27T10:06:20;4.90;;;3.20;;
19842;SDS011;10082;51.038;6.992;2024-01-27T10:08:51;9.05;;;3.30;;
19842;SDS011;10082;51.038;6.992;2024-01-27T10:11:21;6.00;;;2.85;;
19842;SDS011;10082;51.038;6.992;2024-01-27T10:13:53;5.63;;;3.08;;
19842;SDS011;10082;51.038;6.992;2024-01-27T10:16:21;7.63;;;3.08;;
19842;SDS011;10082;51.038;6.992;2024-01-27T10:18:58;7.20;;;3.00;;
19842;SDS011;10082;51.038;6.992;2024-01-27T10:21:27;8.75;;;3.30;;
19842;SDS011;10082;51.038;6.992;2024-01-27T10:23:55;5.93;;;3.22;;
19842;SDS011;10082;51.038;6.992;2024-01-27T10:26:23;7.95;;;3.47;;
19842;SDS011;10082;51.038;6.992;2024-01-27T10:28:53;6.50;;;3.55;;
19842;SDS011;10082;51.038;6.992;2024-01-27T10:31:25;8.27;;;3.58;;
19842;SDS011;10082;51.038;6.992;2024-01-27T10:34:02;8.98;;;3.90;;
19842;SDS011;10082;51.038;6.992;2024-01-27T10:36:42;6.25;;;3.25;;
19842;SDS011;10082;51.038;6.992;2024-01-27T10:39:14;7.88;;;2.90;;
19842;SDS011;10082;51.038;6.992;2024-01-27T10:41:43;7.55;;;3.50;;
19842;SDS011;10082;51.038;6.992;2024-01-27T10:44:12;7.53;;;3.55;;
19842;SDS011;10082;51.038;6.992;2024-01-27T10:46:41;6.93;;;3.17;;
19842;SDS011;10082;51.038;6.992;2024-01-27T10:49:11;7.03;;;3.58;;
19842;SDS011;10082;51.038;6.992;2024-01-27T10:51:40;7.93;;;3.45;;
19842;SDS011;10082;51.038;6.992;2024-01-27T10:54:14;7.82;;;3.33;;
19842;SDS011;10082;51.038;6.992;2024-01-27T10:56:44;9.27;;;3.80;;
19842;SDS011;10082;51.038;6.992;2024-01-27T10:59:13;10.63;;;3.13;;
19842;SDS011;10082;51.038;6.992;2024-01-27T11:01:42;5.60;;;3.13;;
19842;SDS011;10082;51.038;6.992;2024-01-27T11:04:10;7.25;;;3.60;;
19842;SDS011;10082;51.038;6.992;2024-01-27T11:06:40;10.45;;;3.45;;
19842;SDS011;10082;51.038;6.992;2024-01-27T11:09:10;6.85;;;3.92;;
19842;SDS011;10082;51.038;6.992;2024-01-27T11:11:38;8.48;;;3.65;;
19842;SDS011;10082;51.038;6.992;2024-01-27T11:14:07;8.73;;;3.67;;
19842;SDS011;10082;51.038;6.992;2024-01-27T11:16:35;9.18;;;3.90;;
19842;SDS011;10082;51.038;6.992;2024-01-27T11:19:08;6.18;;;3.22;;
19842;SDS011;10082;51.038;6.992;2024-01-27T11:21:37;8.98;;;3.75;;
19842;SDS011;10082;51.038;6.992;2024-01-27T11:24:14;8.18;;;4.10;;
19842;SDS011;10082;51.038;6.992;2024-01-27T11:26:42;7.28;;;3.13;;
19842;SDS011;10082;51.038;6.992;2024-01-27T11:29:15;8.93;;;3.25;;
19842;SDS011;10082;51.038;6.992;2024-01-27T11:31:45;9.57;;;3.40;;
19842;SDS011;10082;51.038;6.992;2024-01-27T11:34:12;8.10;;;3.83;;
19842;SDS011;10082;51.038;6.992;2024-01-27T11:36:42;9.55;;;3.25;;
19842;SDS011;10082;51.038;6.992;2024-01-27T11:39:24;7.03;;;3.42;;
19842;SDS011;10082;51.038;6.992;2024-01-27T11:41:52;7.57;;;3.33;;
19842;SDS011;10082;51.038;6.992;2024-01-27T11:44:20;9.20;;;3.20;;
19842;SDS011;10082;51.038;6.992;2024-01-27T11:46:47;9.52;;;3.63;;
19842;SDS011;10082;51.038;6.992;2024-01-27T11:49:14;10.32;;;3.85;;
19842;SDS011;10082;51.038;6.992;2024-01-27T11:51:43;6.68;;;3.13;;
19842;SDS011;10082;51.038;6.992;2024-01-27T11:54:10;8.98;;;3.40;;
19842;SDS011;10082;51.038;6.992;2024-01-27T11:56:41;9.27;;;3.30;;
19842;SDS011;10082;51.038;6.992;2024-01-27T11:59:09;7.90;;;3.58;;
19842;SDS011;10082;51.038;6.992;2024-01-27T12:01:37;8.95;;;3.40;;
19842;SDS011;10082;51.038;6.992;2024-01-27T12:04:04;8.40;;;4.00;;
19842;SDS011;10082;51.038;6.992;2024-01-27T12:06:32;8.95;;;3.47;;
19842;SDS011;10082;51.038;6.992;2024-01-27T12:08:59;8.85;;;3.30;;
19842;SDS011;10082;51.038;6.992;2024-01-27T12:11:27;10.68;;;3.30;;
19842;SDS011;10082;51.038;6.992;2024-01-27T12:13:57;11.15;;;3.70;;
19842;SDS011;10082;51.038;6.992;2024-01-27T12:16:24;8.73;;;3.80;;
19842;SDS011;10082;51.038;6.992;2024-01-27T12:18:51;9.05;;;3.83;;
19842;SDS011;10082;51.038;6.992;2024-01-27T12:21:20;11.02;;;3.78;;
19842;SDS011;10082;51.038;6.992;2024-01-27T12:23:50;10.57;;;3.67;;
19842;SDS011;10082;51.038;6.992;2024-01-27T12:26:19;9.65;;;4.00;;
19842;SDS011;10082;51.038;6.992;2024-01-27T12:28:47;9.80;;;3.63;;
19842;SDS011;10082;51.038;6.992;2024-01-27T12:31:16;7.90;;;3.30;;
19842;SDS011;10082;51.038;6.992;2024-01-27T12:33:48;6.40;;;3.22;;
19842;SDS011;10082;51.038;6.992;2024-01-27T12:36:17;8.07;;;2.90;;
19842;SDS011;10082;51.038;6.992;2024-01-27T12:38:54;9.30;;;3.30;;
19842;SDS011;10082;51.038;6.992;2024-01-27T12:41:24;8.25;;;3.47;;
19842;SDS011;10082;51.038;6.992;2024-01-27T12:43:52;8.45;;;4.03;;
19842;SDS011;10082;51.038;6.992;2024-01-27T12:46:21;7.55;;;3.33;;
19842;SDS011;10082;51.038;6.992;2024-01-27T12:48:48;7.97;;;3.20;;
19842;SDS011;10082;51.038;6.992;2024-01-27T12:51:16;9.10;;;3.38;;
19842;SDS011;10082;51.038;6.992;2024-01-27T12:53:43;7.28;;;2.95;;
19842;SDS011;10082;51.038;6.992;2024-01-27T12:56:11;9.18;;;3.33;;
19842;SDS011;10082;51.038;6.992;2024-01-27T12:58:39;9.10;;;3.58;;
19842;SDS011;10082;51.038;6.992;2024-01-27T13:01:08;6.93;;;3.35;;
19842;SDS011;10082;51.038;6.992;2024-01-27T13:03:37;10.23;;;3.33;;
19842;SDS011;10082;51.038;6.992;2024-01-27T13:06:04;7.90;;;3.05;;
19842;SDS011;10082;51.038;6.992;2024-01-27T13:08:33;8.27;;;3.58;;
19842;SDS011;10082;51.038;6.992;2024-01-27T13:11:00;8.07;;;3.30;;
19842;SDS011;10082;51.038;6.992;2024-01-27T13:13:27;7.43;;;3.17;;
19842;SDS011;10082;51.038;6.992;2024-01-27T13:15:55;6.65;;;3.13;;
19842;SDS011;10082;51.038;6.992;2024-01-27T13:18:22;7.35;;;2.78;;
19842;SDS011;10082;51.038;6.992;2024-01-27T13:20:50;7.93;;;3.20;;
19842;SDS011;10082;51.038;6.992;2024-01-27T13:23:18;6.68;;;3.20;;
19842;SDS011;10082;51.038;6.992;2024-01-27T13:25:45;7.60;;;3.17;;
19842;SDS011;10082;51.038;6.992;2024-01-27T13:28:12;8.50;;;3.45;;
19842;SDS011;10082;51.038;6.992;2024-01-27T13:30:40;7.32;;;2.88;;
19842;SDS011;10082;51.038;6.992;2024-01-27T13:33:07;8.27;;;3.00;;
19842;SDS011;10082;51.038;6.992;2024-01-27T13:35:34;6.15;;;3.20;;
19842;SDS011;10082;51.038;6.992;2024-01-27T13:38:03;7.25;;;3.10;;
19842;SDS011;10082;51.038;6.992;2024-01-27T13:40:31;12.13;;;3.78;;
19842;SDS011;10082;51.038;6.992;2024-01-27T13:42:58;7.85;;;3.05;;
19842;SDS011;10082;51.038;6.992;2024-01-27T13:45:26;8.52;;;3.00;;
19842;SDS011;10082;51.038;6.992;2024-01-27T13:47:53;7.90;;;2.95;;
19842;SDS011;10082;51.038;6.992;2024-01-27T13:50:20;7.60;;;3.38;;
19842;SDS011;10082;51.038;6.992;2024-01-27T13:52:47;6.97;;;2.85;;
19842;SDS011;10082;51.038;6.992;2024-01-27T13:55:17;7.18;;;3.17;;
19842;SDS011;10082;51.038;6.992;2024-01-27T13:57:44;7.20;;;3.72;;
19842;SDS011;10082;51.038;6.992;2024-01-27T14:00:12;10.30;;;4.00;;
19842;SDS011;10082;51.038;6.992;2024-01-27T14:02:41;11.63;;;4.65;;
19842;SDS011;10082;51.038;6.992;2024-01-27T14:05:09;7.75;;;3.20;;
19842;SDS011;10082;51.038;6.992;2024-01-27T14:07:36;6.70;;;3.30;;
19842;SDS011;10082;51.038;6.992;2024-01-27T14:10:04;5.82;;;3.00;;
19842;SDS011;10082;51.038;6.992;2024-01-27T14:12:36;9.13;;;3.33;;
19842;SDS011;10082;51.038;6.992;2024-01-27T14:15:04;8.48;;;3.13;;
19842;SDS011;10082;51.038;6.992;2024-01-27T14:17:34;7.20;;;3.28;;
19842;SDS011;10082;51.038;6.992;2024-01-27T14:20:02;6.78;;;3.05;;
19842;SDS011;10082;51.038;6.992;2024-01-27T14:22:30;11.82;;;4.32;;
19842;SDS011;10082;51.038;6.992;2024-01-27T14:24:57;7.90;;;3.30;;
19842;SDS011;10082;51.038;6.992;2024-01-27T14:27:24;8.65;;;3.22;;
19842;SDS011;10082;51.038;6.992;2024-01-27T14:29:54;7.47;;;3.00;;
19842;SDS011;10082;51.038;6.992;2024-01-27T14:32:22;7.15;;;3.10;;
19842;SDS011;10082;51.038;6.992;2024-01-27T14:34:50;7.10;;;2.90;;
19842;SDS011;10082;51.038;6.992;2024-01-27T14:37:17;7.28;;;2.90;;
19842;SDS011;10082;51.038;6.992;2024-01-27T14:39:52;6.50;;;2.70;;
19842;SDS011;10082;51.038;6.992;2024-01-27T14:42:19;7.28;;;2.90;;
19842;SDS011;10082;51.038;6.992;2024-01-27T14:44:46;6.05;;;3.22;;
19842;SDS011;10082;51.038;6.992;2024-01-27T14:47:16;7.85;;;3.67;;
19842;SDS011;10082;51.038;6.992;2024-01-27T14:49:43;9.98;;;3.08;;
19842;SDS011;10082;51.038;6.992;2024-01-27T14:52:10;7.82;;;3.17;;